createdAt,value
2023-04-02T00:00:19.765Z,7.57
2023-04-02T00:03:03.806Z,7.55
2023-04-02T00:05:52.367Z,7.53
2023-04-02T00:08:26.899Z,7.53
2023-04-02T00:10:59.708Z,7.52
2023-04-02T00:13:36.465Z,7.50
2023-04-02T00:16:09.566Z,7.50
2023-04-02T00:18:45.638Z,7.49
2023-04-02T00:21:22.347Z,7.48
2023-04-02T00:23:54.882Z,7.48
2023-04-02T00:26:34.093Z,7.47
2023-04-02T00:29:07.306Z,7.46
2023-04-02T00:31:43.258Z,7.46
2023-04-02T00:34:19.366Z,7.46
2023-04-02T00:36:52.022Z,7.45
2023-04-02T00:39:27.320Z,7.44
2023-04-02T00:42:05.766Z,7.43
2023-04-02T00:44:42.769Z,7.42
2023-04-02T00:47:20.415Z,7.41
2023-04-02T00:49:55.744Z,7.40
2023-04-02T00:52:30.661Z,7.39
2023-04-02T00:55:07.831Z,7.37
2023-04-02T00:57:38.422Z,7.37
2023-04-02T01:00:23.012Z,7.35
2023-04-02T01:03:29.774Z,7.33
2023-04-02T01:06:04.960Z,7.31
2023-04-02T01:08:53.972Z,7.30
2023-04-02T01:11:37.997Z,7.28
2023-04-02T01:14:20.126Z,7.28
2023-04-02T01:16:56.312Z,7.27
2023-04-02T01:19:53.945Z,7.27
2023-04-02T01:22:35.209Z,7.26
2023-04-02T01:25:08.495Z,7.26
2023-04-02T01:27:46.880Z,7.26
2023-04-02T01:30:18.304Z,7.25
2023-04-02T01:32:49.019Z,7.25
2023-04-02T01:35:20.501Z,7.26
2023-04-02T01:37:51.729Z,7.26
2023-04-02T01:40:40.371Z,7.26
2023-04-02T01:43:21.145Z,7.26
2023-04-02T01:45:52.189Z,7.27
2023-04-02T01:48:27.565Z,7.27
2023-04-02T01:51:00.366Z,7.28
2023-04-02T01:53:33.324Z,7.28
2023-04-02T01:56:05.019Z,7.28
2023-04-02T01:58:35.769Z,7.28
2023-04-02T02:01:12.704Z,7.29
2023-04-02T02:03:45.965Z,7.30
2023-04-02T02:06:19.383Z,7.31
2023-04-02T02:08:52.851Z,7.31
2023-04-02T02:11:27.004Z,7.31
2023-04-02T02:14:00.229Z,7.32
2023-04-02T02:16:31.837Z,7.32
2023-04-02T02:19:04.254Z,7.33
2023-04-02T02:21:42.507Z,7.34
2023-04-02T02:24:21.170Z,7.33
2023-04-02T02:26:58.015Z,7.33
2023-04-02T02:29:30.553Z,7.33
2023-04-02T02:32:03.805Z,7.34
2023-04-02T02:34:39.121Z,7.34
2023-04-02T02:37:18.746Z,7.35
2023-04-02T02:39:55.009Z,7.35
2023-04-02T02:42:31.686Z,7.35
2023-04-02T02:45:07.168Z,7.35
2023-04-02T02:47:40.632Z,7.36
2023-04-02T02:50:20.128Z,7.35
2023-04-02T02:52:55.163Z,7.35
2023-04-02T02:55:32.166Z,7.36
2023-04-02T02:58:27.602Z,7.35
2023-04-02T03:01:10.592Z,7.36
2023-04-02T03:03:41.747Z,7.36
2023-04-02T03:06:20.730Z,7.36
2023-04-02T03:08:56.523Z,7.36
2023-04-02T03:11:39.763Z,7.37
2023-04-02T03:14:21.381Z,7.36
2023-04-02T03:16:58.736Z,7.35
2023-04-02T03:19:36.963Z,7.35
2023-04-02T03:22:15.094Z,7.35
2023-04-02T03:24:54.939Z,7.35
2023-04-02T03:27:33.104Z,7.35
2023-04-02T03:30:27.572Z,7.35
2023-04-02T03:33:03.306Z,7.36
2023-04-02T03:35:39.392Z,7.37
2023-04-02T03:38:17.465Z,7.37
2023-04-02T03:41:00.747Z,7.38
2023-04-02T03:43:37.753Z,7.38
2023-04-02T03:46:17.608Z,7.38
2023-04-02T03:48:52.453Z,7.38
2023-04-02T03:51:28.624Z,7.39
2023-04-02T03:53:59.384Z,7.38
2023-04-02T03:56:39.542Z,7.40
2023-04-02T03:59:21.844Z,7.39
2023-04-02T04:01:57.817Z,7.39
2023-04-02T04:04:32.112Z,7.39
2023-04-02T04:07:03.455Z,7.39
2023-04-02T04:09:37.352Z,7.39
2023-04-02T04:12:23.365Z,7.39
2023-04-02T04:15:01.131Z,7.39
2023-04-02T04:17:41.420Z,7.38
2023-04-02T04:20:22.123Z,7.39
2023-04-02T04:22:55.814Z,7.39
2023-04-02T04:25:33.837Z,7.39
2023-04-02T04:28:21.521Z,7.39
2023-04-02T04:31:00.640Z,7.39
2023-04-02T04:33:39.909Z,7.39
2023-04-02T04:36:29.008Z,7.39
2023-04-02T04:39:15.505Z,7.39
2023-04-02T04:41:51.180Z,7.39
2023-04-02T04:44:25.689Z,7.39
2023-04-02T04:47:04.624Z,7.39
2023-04-02T04:49:40.374Z,7.39
2023-04-02T04:52:16.418Z,7.39
2023-04-02T04:54:49.615Z,7.40
2023-04-02T04:57:30.908Z,7.40
2023-04-02T05:00:09.357Z,7.39
2023-04-02T05:02:48.416Z,7.39
2023-04-02T05:05:26.148Z,7.38
2023-04-02T05:08:02.422Z,7.37
2023-04-02T05:10:40.141Z,7.37
2023-04-02T05:13:17.774Z,7.36
2023-04-02T05:15:56.279Z,7.36
2023-04-02T05:18:33.417Z,7.36
2023-04-02T05:21:15.518Z,7.35
2023-04-02T05:23:52.221Z,7.34
2023-04-02T05:26:26.424Z,7.34
2023-04-02T05:29:05.072Z,7.33
2023-04-02T05:31:43.896Z,7.34
2023-04-02T05:34:25.128Z,7.34
2023-04-02T05:36:58.298Z,7.35
2023-04-02T05:39:29.902Z,7.35
2023-04-02T05:42:05.643Z,7.36
2023-04-02T05:44:57.209Z,7.37
2023-04-02T05:47:31.367Z,7.39
2023-04-02T05:50:22.921Z,7.40
2023-04-02T05:52:55.270Z,7.41
2023-04-02T05:55:41.258Z,7.43
2023-04-02T05:58:34.497Z,7.44
2023-04-02T06:01:26.280Z,7.46
2023-04-02T06:04:07.445Z,7.48
2023-04-02T06:06:58.903Z,7.50
2023-04-02T06:09:39.907Z,7.53
2023-04-02T06:12:20.619Z,7.56
2023-04-02T06:14:56.213Z,7.58
2023-04-02T06:17:34.820Z,7.60
2023-04-02T06:20:07.610Z,7.63
2023-04-02T06:22:42.947Z,7.66
2023-04-02T06:25:21.275Z,7.68
2023-04-02T06:27:54.316Z,7.69
2023-04-02T06:30:33.477Z,7.71
2023-04-02T06:33:09.485Z,7.73
2023-04-02T06:35:46.722Z,7.74
2023-04-02T06:38:27.475Z,7.77
2023-04-02T06:41:01.010Z,7.78
2023-04-02T06:44:26.645Z,7.79
2023-04-02T06:47:24.956Z,7.79
2023-04-02T06:49:59.527Z,7.80
2023-04-02T06:52:35.255Z,7.82
2023-04-02T06:55:22.872Z,7.83
2023-04-02T06:57:53.443Z,7.84
2023-04-02T07:00:32.765Z,7.86
2023-04-02T07:03:07.278Z,7.88
2023-04-02T07:05:40.372Z,7.90
2023-04-02T07:08:12.388Z,7.93
2023-04-02T07:10:43.168Z,7.94
2023-04-02T07:13:17.834Z,7.96
2023-04-02T07:15:50.855Z,7.96
2023-04-02T07:18:28.912Z,7.97
2023-04-02T07:21:00.229Z,8.01
2023-04-02T07:23:31.855Z,8.03
2023-04-02T07:26:03.181Z,8.05
2023-04-02T07:28:32.147Z,8.08
2023-04-02T07:31:02.813Z,8.10
2023-04-02T07:33:34.354Z,8.11
2023-04-02T07:36:05.229Z,8.13
2023-04-02T07:38:36.169Z,8.14
2023-04-02T07:41:09.568Z,8.15
2023-04-02T07:43:41.409Z,8.16
2023-04-02T07:46:15.117Z,8.18
2023-04-02T07:48:46.364Z,8.22
2023-04-02T07:51:21.164Z,8.26
2023-04-02T07:53:56.037Z,8.31
2023-04-02T07:56:28.723Z,8.37
2023-04-02T07:58:59.168Z,8.40
2023-04-02T08:01:35.130Z,8.43
2023-04-02T08:04:07.844Z,8.47
2023-04-02T08:06:38.477Z,8.49
2023-04-02T08:09:09.060Z,8.53
2023-04-02T08:11:40.218Z,8.55
2023-04-02T08:14:11.174Z,8.59
2023-04-02T08:16:50.680Z,8.62
2023-04-02T08:19:21.967Z,8.66
2023-04-02T08:21:52.042Z,8.67
2023-04-02T08:24:22.982Z,8.71
2023-04-02T08:26:54.128Z,8.75
2023-04-02T08:29:25.000Z,8.80
2023-04-02T08:31:55.987Z,8.84
2023-04-02T08:34:26.903Z,8.87
2023-04-02T08:37:00.166Z,8.93
2023-04-02T08:39:33.244Z,9.00
2023-04-02T08:42:08.778Z,9.09
2023-04-02T08:44:49.825Z,9.13
2023-04-02T08:47:25.883Z,9.15
2023-04-02T08:50:00.873Z,9.17
2023-04-02T08:52:35.766Z,9.17
2023-04-02T08:55:23.736Z,9.18
2023-04-02T08:58:02.845Z,9.23
2023-04-02T09:00:40.296Z,9.32
2023-04-02T09:03:16.242Z,9.40
2023-04-02T09:05:48.909Z,9.49
2023-04-02T09:08:22.031Z,9.57
2023-04-02T09:10:56.259Z,9.68
2023-04-02T09:13:29.544Z,9.79
2023-04-02T09:16:04.853Z,9.91
2023-04-02T09:18:35.686Z,10.03
2023-04-02T09:21:20.870Z,10.19
2023-04-02T09:23:51.992Z,10.34
2023-04-02T09:26:27.221Z,10.46
2023-04-02T09:29:03.955Z,10.52
2023-04-02T09:31:39.997Z,10.60
2023-04-02T09:34:31.260Z,10.61
2023-04-02T09:37:10.408Z,10.55
2023-04-02T09:39:41.100Z,10.57
2023-04-02T09:42:34.095Z,10.64
2023-04-02T09:45:21.196Z,10.75
2023-04-02T09:47:53.336Z,10.81
2023-04-02T09:50:29.601Z,10.87
2023-04-02T09:53:00.917Z,10.90
2023-04-02T09:55:32.196Z,10.88
2023-04-02T09:58:15.387Z,10.80
2023-04-02T10:00:54.288Z,10.74
2023-04-02T10:03:27.851Z,10.73
2023-04-02T10:06:10.455Z,10.72
2023-04-02T10:08:42.858Z,10.75
2023-04-02T10:11:17.614Z,10.83
2023-04-02T10:13:56.829Z,10.86
2023-04-02T10:16:33.152Z,10.88
2023-04-02T10:19:24.488Z,10.93
2023-04-02T10:21:56.820Z,10.97
2023-04-02T10:24:30.034Z,11.01
2023-04-02T10:27:17.738Z,11.06
2023-04-02T10:30:09.566Z,11.03
2023-04-02T10:32:45.688Z,10.95
2023-04-02T10:35:25.535Z,10.88
2023-04-02T10:38:07.272Z,10.80
2023-04-02T10:40:41.014Z,10.64
2023-04-02T10:43:36.442Z,10.48
2023-04-02T10:46:13.255Z,10.35
2023-04-02T10:48:53.703Z,10.23
2023-04-02T10:51:40.316Z,10.09
2023-04-02T10:54:28.019Z,9.92
2023-04-02T10:57:04.144Z,9.73
2023-04-02T10:59:38.665Z,9.62
2023-04-02T11:02:32.004Z,9.51
2023-04-02T11:05:08.806Z,9.38
2023-04-02T11:07:54.238Z,9.25
2023-04-02T11:10:27.633Z,9.16
2023-04-02T11:13:02.592Z,9.11
2023-04-02T11:15:33.859Z,9.09
2023-04-02T11:18:04.924Z,9.12
2023-04-02T11:21:00.577Z,9.16
2023-04-02T11:23:35.121Z,9.20
2023-04-02T11:26:37.512Z,9.24
2023-04-02T11:29:19.366Z,9.22
2023-04-02T11:31:51.690Z,9.21
2023-04-02T11:35:05.896Z,9.20
2023-04-02T11:37:39.711Z,9.15
2023-04-02T11:40:53.117Z,9.16
2023-04-02T11:44:01.127Z,9.11
2023-04-02T11:46:47.355Z,9.07
2023-04-02T11:49:37.118Z,9.06
2023-04-02T11:52:23.116Z,9.08
2023-04-02T11:55:22.383Z,9.11
2023-04-02T11:58:22.904Z,9.13
2023-04-02T12:01:23.153Z,9.16
2023-04-02T12:04:32.408Z,9.21
2023-04-02T12:07:34.689Z,9.25
2023-04-02T12:10:16.905Z,9.27
2023-04-02T12:12:47.631Z,9.30
2023-04-02T12:15:44.133Z,9.33
2023-04-02T12:18:22.616Z,9.33
2023-04-02T12:20:55.116Z,9.34
2023-04-02T12:23:29.273Z,9.37
2023-04-02T12:26:01.734Z,9.45
2023-04-02T12:28:33.817Z,9.55
2023-04-02T12:31:17.770Z,9.67
2023-04-02T12:33:52.613Z,9.73
2023-04-02T12:36:24.246Z,9.84
2023-04-02T12:38:57.570Z,9.94
2023-04-02T12:41:30.992Z,10.03
2023-04-02T12:44:02.799Z,10.13
2023-04-02T12:46:35.970Z,10.12
2023-04-02T12:49:10.201Z,10.17
2023-04-02T12:51:41.865Z,10.21
2023-04-02T12:54:17.500Z,10.26
2023-04-02T12:56:48.452Z,10.35
2023-04-02T12:59:30.777Z,10.32
2023-04-02T13:02:04.082Z,10.25
2023-04-02T13:04:47.155Z,10.24
2023-04-02T13:07:20.437Z,10.25
2023-04-02T13:09:53.658Z,10.25
2023-04-02T13:12:33.271Z,10.19
2023-04-02T13:15:06.468Z,10.15
2023-04-02T13:17:43.182Z,10.02
2023-04-02T13:20:36.034Z,9.93
2023-04-02T13:23:26.605Z,9.84
2023-04-02T13:25:58.105Z,9.82
2023-04-02T13:28:29.078Z,9.87
2023-04-02T13:31:00.006Z,9.95
2023-04-02T13:33:30.631Z,10.02
2023-04-02T13:36:01.564Z,10.03
2023-04-02T13:38:32.138Z,10.05
2023-04-02T13:41:02.659Z,10.03
2023-04-02T13:43:33.289Z,10.05
2023-04-02T13:46:07.159Z,10.07
2023-04-02T13:48:38.001Z,10.07
2023-04-02T13:51:10.886Z,10.09
2023-04-02T13:53:41.538Z,10.09
2023-04-02T13:56:12.299Z,10.05
2023-04-02T13:58:42.703Z,9.98
2023-04-02T14:01:14.451Z,9.88
2023-04-02T14:03:45.405Z,9.77
2023-04-02T14:06:28.916Z,9.64
2023-04-02T14:09:06.620Z,9.55
2023-04-02T14:11:52.211Z,9.46
2023-04-02T14:14:43.088Z,9.37
2023-04-02T14:17:25.543Z,9.26
2023-04-02T14:20:18.121Z,9.12
2023-04-02T14:23:04.640Z,9.01
2023-04-02T14:25:42.655Z,8.90
2023-04-02T14:28:23.653Z,8.75
2023-04-02T14:31:02.490Z,8.69
2023-04-02T14:33:44.150Z,8.63
2023-04-02T14:36:21.989Z,8.58
2023-04-02T14:39:00.698Z,8.52
2023-04-02T14:41:41.000Z,8.48
2023-04-02T14:44:13.865Z,8.51
2023-04-02T14:46:44.496Z,8.54
2023-04-02T14:49:26.432Z,8.54
2023-04-02T14:52:04.390Z,8.52
2023-04-02T14:54:38.649Z,8.46
2023-04-02T14:57:17.027Z,8.41
2023-04-02T14:59:57.717Z,8.40
2023-04-02T15:02:36.495Z,8.37
2023-04-02T15:05:15.434Z,8.28
2023-04-02T15:07:50.058Z,8.21
2023-04-02T15:10:27.371Z,8.12
2023-04-02T15:12:59.045Z,8.05
2023-04-02T15:15:42.545Z,8.02
2023-04-02T15:18:16.372Z,7.99
2023-04-02T15:20:55.864Z,7.97
2023-04-02T15:23:35.465Z,7.96
2023-04-02T15:26:13.779Z,7.94
2023-04-02T15:28:48.300Z,7.90
2023-04-02T15:31:22.341Z,7.86
2023-04-02T15:33:59.757Z,7.83
2023-04-02T15:36:59.928Z,7.81
2023-04-02T15:39:43.018Z,7.81
2023-04-02T15:42:23.659Z,7.79
2023-04-02T15:45:18.954Z,7.78
2023-04-02T15:48:15.185Z,7.80
2023-04-02T15:50:55.453Z,7.78
2023-04-02T15:53:39.105Z,7.71
2023-04-02T15:56:23.459Z,7.63
2023-04-02T15:59:19.380Z,7.57
2023-04-02T16:02:00.115Z,7.53
2023-04-02T16:04:47.500Z,7.48
2023-04-02T16:07:44.928Z,7.44
2023-04-02T16:10:38.049Z,7.44
2023-04-02T16:13:20.957Z,7.43
2023-04-02T16:15:59.572Z,7.41
2023-04-02T16:18:42.964Z,7.39
2023-04-02T16:21:17.440Z,7.35
2023-04-02T16:23:48.406Z,7.31
2023-04-02T16:26:32.244Z,7.28
2023-04-02T16:29:16.381Z,7.23
2023-04-02T16:31:54.713Z,7.16
2023-04-02T16:34:36.649Z,7.07
2023-04-02T16:37:18.108Z,6.99
2023-04-02T16:39:52.130Z,6.94
2023-04-02T16:42:31.228Z,6.90
2023-04-02T16:45:16.415Z,6.88
2023-04-02T16:47:59.608Z,6.84
2023-04-02T16:50:39.740Z,6.82
2023-04-02T16:53:21.584Z,6.78
2023-04-02T16:56:05.015Z,6.76
2023-04-02T16:58:48.395Z,6.71
2023-04-02T17:01:28.713Z,6.66
2023-04-02T17:04:21.814Z,6.63
2023-04-02T17:07:03.164Z,6.61
2023-04-02T17:09:44.014Z,6.58
2023-04-02T17:12:21.373Z,6.54
2023-04-02T17:14:57.558Z,6.48
2023-04-02T17:17:28.214Z,6.38
2023-04-02T17:20:01.865Z,6.33
2023-04-02T17:22:34.480Z,6.28
2023-04-02T17:25:08.950Z,6.25
2023-04-02T17:27:41.589Z,6.21
2023-04-02T17:30:20.061Z,6.19
2023-04-02T17:32:50.751Z,6.16
2023-04-02T17:35:28.889Z,6.12
2023-04-02T17:38:09.492Z,6.06
2023-04-02T17:40:52.240Z,6.01
2023-04-02T17:43:37.863Z,5.96
2023-04-02T17:46:20.725Z,5.92
2023-04-02T17:48:59.464Z,5.88
2023-04-02T17:51:40.852Z,5.87
2023-04-02T17:54:30.781Z,5.85
2023-04-02T17:57:17.731Z,5.83
2023-04-02T17:59:56.927Z,5.81
2023-04-02T18:02:47.436Z,5.77
2023-04-02T18:05:28.734Z,5.75
2023-04-02T18:08:12.539Z,5.73
2023-04-02T18:10:54.722Z,5.70
2023-04-02T18:13:34.933Z,5.68
2023-04-02T18:16:25.691Z,5.65
2023-04-02T18:19:16.174Z,5.62
2023-04-02T18:21:56.805Z,5.60
2023-04-02T18:25:00.421Z,5.57
2023-04-02T18:28:00.442Z,5.54
2023-04-02T18:30:38.575Z,5.50
2023-04-02T18:33:29.865Z,5.47
2023-04-02T18:36:09.792Z,5.43
2023-04-02T18:38:46.027Z,5.40
2023-04-02T18:41:36.000Z,5.38
2023-04-02T18:44:23.371Z,5.35
2023-04-02T18:46:56.440Z,5.30
2023-04-02T18:49:37.450Z,5.28
2023-04-02T18:52:14.869Z,5.26
2023-04-02T18:54:47.630Z,5.21
2023-04-02T18:57:23.408Z,5.18
2023-04-02T19:00:00.441Z,5.15
2023-04-02T19:02:49.101Z,5.11
2023-04-02T19:05:27.313Z,5.07
2023-04-02T19:08:15.475Z,5.05
2023-04-02T19:10:47.952Z,5.03
2023-04-02T19:13:20.767Z,5.00
2023-04-02T19:16:07.436Z,4.95
2023-04-02T19:18:51.857Z,4.91
2023-04-02T19:21:34.312Z,4.87
2023-04-02T19:24:22.099Z,4.79
2023-04-02T19:26:59.721Z,4.74
2023-04-02T19:29:41.685Z,4.68
2023-04-02T19:32:21.903Z,4.63
2023-04-02T19:34:59.652Z,4.59
2023-04-02T19:37:37.742Z,4.54
2023-04-02T19:40:20.629Z,4.51
2023-04-02T19:42:52.887Z,4.48
2023-04-02T19:45:38.862Z,4.44
2023-04-02T19:48:17.349Z,4.44
2023-04-02T19:50:49.219Z,4.42
2023-04-02T19:53:20.236Z,4.40
2023-04-02T19:55:51.743Z,4.38
2023-04-02T19:58:27.783Z,4.36
2023-04-02T20:00:59.084Z,4.33
2023-04-02T20:03:28.181Z,4.30
2023-04-02T20:05:59.879Z,4.27
2023-04-02T20:08:31.333Z,4.23
2023-04-02T20:11:02.228Z,4.20
2023-04-02T20:13:32.842Z,4.18
2023-04-02T20:16:04.756Z,4.17
2023-04-02T20:18:37.168Z,4.14
2023-04-02T20:21:09.448Z,4.13
2023-04-02T20:23:39.983Z,4.10
2023-04-02T20:26:11.694Z,4.09
2023-04-02T20:28:42.271Z,4.07
2023-04-02T20:31:15.060Z,4.04
2023-04-02T20:33:45.854Z,4.02
2023-04-02T20:36:18.459Z,3.99
2023-04-02T20:38:51.018Z,3.99
2023-04-02T20:41:23.178Z,3.96
2023-04-02T20:43:53.887Z,3.93
2023-04-02T20:46:25.326Z,3.91
2023-04-02T20:48:55.849Z,3.91
2023-04-02T20:51:26.510Z,3.89
2023-04-02T20:53:57.098Z,3.88
2023-04-02T20:56:27.959Z,3.87
2023-04-02T20:58:58.597Z,3.86
2023-04-02T21:01:30.999Z,3.88
2023-04-02T21:04:03.184Z,3.87
2023-04-02T21:06:36.374Z,3.87
2023-04-02T21:09:08.831Z,3.88
2023-04-02T21:11:39.507Z,3.88
2023-04-02T21:14:09.964Z,3.89
2023-04-02T21:16:40.862Z,3.89
2023-04-02T21:19:12.221Z,3.89
2023-04-02T21:21:41.879Z,3.91
2023-04-02T21:24:12.794Z,3.90
2023-04-02T21:26:44.119Z,3.90
2023-04-02T21:29:15.628Z,3.91
2023-04-02T21:31:46.548Z,3.90
2023-04-02T21:34:18.058Z,3.88
2023-04-02T21:36:50.578Z,3.89
2023-04-02T21:39:23.171Z,3.90
2023-04-02T21:41:54.891Z,3.90
2023-04-02T21:44:26.039Z,3.88
2023-04-02T21:46:56.522Z,3.87
2023-04-02T21:49:27.286Z,3.86
2023-04-02T21:51:57.796Z,3.85
2023-04-02T21:54:28.280Z,3.85
2023-04-02T21:56:59.666Z,3.86
2023-04-02T21:59:28.637Z,3.86
2023-04-02T22:01:59.029Z,3.86
2023-04-02T22:04:30.675Z,3.86
2023-04-02T22:07:03.430Z,3.85
2023-04-02T22:09:33.863Z,3.84
2023-04-02T22:12:06.465Z,3.82
2023-04-02T22:14:37.164Z,3.83
2023-04-02T22:17:07.713Z,3.83
2023-04-02T22:19:38.285Z,3.83
2023-04-02T22:22:08.677Z,3.83
2023-04-02T22:24:39.193Z,3.82
2023-04-02T22:27:09.762Z,3.83
2023-04-02T22:29:41.318Z,3.83
2023-04-02T22:32:11.847Z,3.81
2023-04-02T22:34:45.560Z,3.79
2023-04-02T22:37:16.104Z,3.77
2023-04-02T22:39:46.440Z,3.73
2023-04-02T22:42:16.780Z,3.69
2023-04-02T22:44:47.255Z,3.62
2023-04-02T22:47:17.615Z,3.55
2023-04-02T22:49:48.341Z,3.48
2023-04-02T22:52:18.736Z,3.39
2023-04-02T22:54:49.404Z,3.29
2023-04-02T22:57:20.048Z,3.19
2023-04-02T22:59:50.517Z,3.10
2023-04-02T23:02:20.995Z,3.02
2023-04-02T23:04:51.510Z,2.91
2023-04-02T23:07:21.838Z,2.80
2023-04-02T23:09:52.257Z,2.68
2023-04-02T23:12:22.611Z,2.56
2023-04-02T23:14:54.012Z,2.44
2023-04-02T23:17:22.781Z,2.32
2023-04-02T23:19:53.255Z,2.23
2023-04-02T23:22:23.562Z,2.12
2023-04-02T23:24:54.666Z,2.03
2023-04-02T23:27:25.493Z,1.95
2023-04-02T23:29:57.075Z,1.87
2023-04-02T23:32:27.416Z,1.78
2023-04-02T23:34:57.896Z,1.71
2023-04-02T23:37:28.335Z,1.67
2023-04-02T23:39:58.905Z,1.61
2023-04-02T23:42:29.272Z,1.55
2023-04-02T23:44:59.653Z,1.48
2023-04-02T23:47:29.938Z,1.41
2023-04-02T23:50:00.362Z,1.33
2023-04-02T23:52:30.777Z,1.25
2023-04-02T23:55:01.419Z,1.17
2023-04-02T23:57:32.051Z,1.09
